Terminal Aerodrome Forecast
Issued by NWS Denver/Boulder, CO

Home | Current Version | Previous Version | Text Only | Print | Product List | Glossary On
Versions: 1 2 3 4 5 6 7 8 9 10 11 12 13 14 15 16 17 18 19 20 21 22 23 24 25 26 27 28 29 30 31 32 33 34 35 36 37 38 39 40 41 42 43 44 45 46 47 48 49 50
819
FTUS45 KBOU 220551
TAFDEN
TAF
KDEN 220551Z 2206/2312 20014G22KT P6SM FEW220
     FM221400 22010KT P6SM FEW220
     FM221700 19014G22KT P6SM SCT220
     FM222000 19018G30KT P6SM SCT100 BKN220
     FM230300 22012G20KT P6SM SCT100 BKN220
     FM230500 36010KT P6SM SCT100 BKN220=

USA.gov is the U.S. government's official web portal to all federal, state and local government web resources and services.